sensor_id;sensor_type;location;lat;lon;timestamp;temperature;humidity
51273;DHT22;37345;59.828;30.328;2022-10-31T00:04:46;2.60;99.90
51273;DHT22;37345;59.828;30.328;2022-10-31T00:07:12;2.60;99.90
51273;DHT22;37345;59.828;30.328;2022-10-31T00:09:38;2.60;99.90
51273;DHT22;37345;59.828;30.328;2022-10-31T00:12:04;2.50;99.90
51273;DHT22;37345;59.828;30.328;2022-10-31T00:17:29;2.60;99.90
51273;DHT22;37345;59.828;30.328;2022-10-31T00:19:55;2.50;99.90
51273;DHT22;37345;59.828;30.328;2022-10-31T00:31:17;2.50;99.90
51273;DHT22;37345;59.828;30.328;2022-10-31T00:36:45;2.50;99.90
51273;DHT22;37345;59.828;30.328;2022-10-31T00:39:11;2.50;99.90
51273;DHT22;37345;59.828;30.328;2022-10-31T00:41:37;2.50;99.90
51273;DHT22;37345;59.828;30.328;2022-10-31T00:44:03;2.50;99.90
51273;DHT22;37345;59.828;30.328;2022-10-31T00:46:28;2.40;99.90
51273;DHT22;37345;59.828;30.328;2022-10-31T00:48:54;2.40;99.90
51273;DHT22;37345;59.828;30.328;2022-10-31T00:51:20;2.40;99.90
51273;DHT22;37345;59.828;30.328;2022-10-31T00:53:46;2.40;99.90
51273;DHT22;37345;59.828;30.328;2022-10-31T00:56:11;2.40;99.90
51273;DHT22;37345;59.828;30.328;2022-10-31T00:58:37;2.30;99.90
51273;DHT22;37345;59.828;30.328;2022-10-31T01:01:03;2.30;99.90
51273;DHT22;37345;59.828;30.328;2022-10-31T01:03:31;2.30;99.90
51273;DHT22;37345;59.828;30.328;2022-10-31T01:06:09;2.30;99.90
51273;DHT22;37345;59.828;30.328;2022-10-31T01:08:36;2.40;99.90
51273;DHT22;37345;59.828;30.328;2022-10-31T01:11:13;2.30;99.90
51273;DHT22;37345;59.828;30.328;2022-10-31T01:13:39;2.20;99.90
51273;DHT22;37345;59.828;30.328;2022-10-31T01:16:06;2.20;99.90
51273;DHT22;37345;59.828;30.328;2022-10-31T01:18:33;2.20;99.90
51273;DHT22;37345;59.828;30.328;2022-10-31T01:21:08;2.20;99.90
51273;DHT22;37345;59.828;30.328;2022-10-31T01:23:34;2.20;99.90
51273;DHT22;37345;59.828;30.328;2022-10-31T01:26:05;2.20;99.90
51273;DHT22;37345;59.828;30.328;2022-10-31T01:28:31;2.20;99.90
51273;DHT22;37345;59.828;30.328;2022-10-31T01:31:02;2.10;99.90
51273;DHT22;37345;59.828;30.328;2022-10-31T01:33:28;2.10;99.90
51273;DHT22;37345;59.828;30.328;2022-10-31T01:35:53;2.10;99.90
51273;DHT22;37345;59.828;30.328;2022-10-31T01:38:19;2.00;99.90
51273;DHT22;37345;59.828;30.328;2022-10-31T01:40:45;2.10;99.90
51273;DHT22;37345;59.828;30.328;2022-10-31T01:43:13;2.10;99.90
51273;DHT22;37345;59.828;30.328;2022-10-31T01:45:40;2.10;99.90
51273;DHT22;37345;59.828;30.328;2022-10-31T01:48:14;2.10;99.90
51273;DHT22;37345;59.828;30.328;2022-10-31T01:50:43;2.00;99.90
51273;DHT22;37345;59.828;30.328;2022-10-31T01:53:11;2.00;99.90
51273;DHT22;37345;59.828;30.328;2022-10-31T01:55:42;2.00;99.90
51273;DHT22;37345;59.828;30.328;2022-10-31T01:58:16;2.00;99.90
51273;DHT22;37345;59.828;30.328;2022-10-31T02:00:48;2.00;99.90
51273;DHT22;37345;59.828;30.328;2022-10-31T02:03:16;1.90;99.90
51273;DHT22;37345;59.828;30.328;2022-10-31T02:05:43;1.90;99.90
51273;DHT22;37345;59.828;30.328;2022-10-31T02:08:12;1.90;99.90
51273;DHT22;37345;59.828;30.328;2022-10-31T02:10:40;1.90;99.90
51273;DHT22;37345;59.828;30.328;2022-10-31T02:13:08;1.90;99.90
51273;DHT22;37345;59.828;30.328;2022-10-31T02:15:36;1.90;99.90
51273;DHT22;37345;59.828;30.328;2022-10-31T02:18:03;1.90;99.90
51273;DHT22;37345;59.828;30.328;2022-10-31T02:20:42;1.90;99.90
51273;DHT22;37345;59.828;30.328;2022-10-31T02:26:09;1.80;99.90
51273;DHT22;37345;59.828;30.328;2022-10-31T02:31:42;1.70;99.90
51273;DHT22;37345;59.828;30.328;2022-10-31T02:34:31;1.70;99.90
51273;DHT22;37345;59.828;30.328;2022-10-31T02:37:19;1.70;99.90
51273;DHT22;37345;59.828;30.328;2022-10-31T02:40:08;1.70;99.90
51273;DHT22;37345;59.828;30.328;2022-10-31T02:43:12;1.70;99.90
51273;DHT22;37345;59.828;30.328;2022-10-31T02:45:57;1.60;99.90
51273;DHT22;37345;59.828;30.328;2022-10-31T02:48:28;1.60;99.90
51273;DHT22;37345;59.828;30.328;2022-10-31T02:50:59;1.50;99.90
51273;DHT22;37345;59.828;30.328;2022-10-31T02:53:25;1.60;99.90
51273;DHT22;37345;59.828;30.328;2022-10-31T02:58:25;1.50;99.90
51273;DHT22;37345;59.828;30.328;2022-10-31T03:03:54;1.40;99.90
51273;DHT22;37345;59.828;30.328;2022-10-31T03:14:24;1.40;99.90
51273;DHT22;37345;59.828;30.328;2022-10-31T03:16:54;1.40;99.90
51273;DHT22;37345;59.828;30.328;2022-10-31T03:19:55;1.40;99.90
51273;DHT22;37345;59.828;30.328;2022-10-31T03:22:20;1.30;99.90
51273;DHT22;37345;59.828;30.328;2022-10-31T03:24:48;1.40;99.90
51273;DHT22;37345;59.828;30.328;2022-10-31T03:27:20;1.30;99.90
51273;DHT22;37345;59.828;30.328;2022-10-31T03:29:49;1.30;99.90
51273;DHT22;37345;59.828;30.328;2022-10-31T03:32:36;1.30;99.90
51273;DHT22;37345;59.828;30.328;2022-10-31T03:35:04;1.30;99.90
51273;DHT22;37345;59.828;30.328;2022-10-31T03:37:32;1.30;99.90
51273;DHT22;37345;59.828;30.328;2022-10-31T03:40:01;1.30;99.90
51273;DHT22;37345;59.828;30.328;2022-10-31T03:42:31;1.30;99.90
51273;DHT22;37345;59.828;30.328;2022-10-31T03:45:13;1.30;99.90
51273;DHT22;37345;59.828;30.328;2022-10-31T03:47:41;1.20;99.90
51273;DHT22;37345;59.828;30.328;2022-10-31T03:50:09;1.20;99.90
51273;DHT22;37345;59.828;30.328;2022-10-31T03:55:18;1.20;99.90
51273;DHT22;37345;59.828;30.328;2022-10-31T03:58:04;1.10;99.90
51273;DHT22;37345;59.828;30.328;2022-10-31T04:00:32;1.10;99.90
51273;DHT22;37345;59.828;30.328;2022-10-31T04:03:31;1.10;99.90
51273;DHT22;37345;59.828;30.328;2022-10-31T04:06:02;1.10;99.90
51273;DHT22;37345;59.828;30.328;2022-10-31T04:08:31;1.10;99.90
51273;DHT22;37345;59.828;30.328;2022-10-31T04:10:59;1.10;99.90
51273;DHT22;37345;59.828;30.328;2022-10-31T04:13:31;1.10;99.90
51273;DHT22;37345;59.828;30.328;2022-10-31T04:15:58;1.10;99.90
51273;DHT22;37345;59.828;30.328;2022-10-31T04:18:25;1.10;99.90
51273;DHT22;37345;59.828;30.328;2022-10-31T04:21:00;1.00;99.90
51273;DHT22;37345;59.828;30.328;2022-10-31T04:23:29;1.00;99.90
51273;DHT22;37345;59.828;30.328;2022-10-31T04:25:56;0.90;99.90
51273;DHT22;37345;59.828;30.328;2022-10-31T04:28:22;0.90;99.90
51273;DHT22;37345;59.828;30.328;2022-10-31T04:30:48;0.90;99.90
51273;DHT22;37345;59.828;30.328;2022-10-31T04:33:14;1.00;99.90
51273;DHT22;37345;59.828;30.328;2022-10-31T04:35:40;1.00;99.90
51273;DHT22;37345;59.828;30.328;2022-10-31T04:38:06;1.00;99.90
51273;DHT22;37345;59.828;30.328;2022-10-31T04:40:32;0.80;99.90
51273;DHT22;37345;59.828;30.328;2022-10-31T04:42:58;0.80;99.90
51273;DHT22;37345;59.828;30.328;2022-10-31T04:45:24;0.90;99.90
51273;DHT22;37345;59.828;30.328;2022-10-31T04:47:49;1.00;99.90
51273;DHT22;37345;59.828;30.328;2022-10-31T04:50:15;1.00;99.90
51273;DHT22;37345;59.828;30.328;2022-10-31T04:52:43;1.00;99.90
51273;DHT22;37345;59.828;30.328;2022-10-31T04:55:10;1.00;99.90
51273;DHT22;37345;59.828;30.328;2022-10-31T04:57:43;0.90;99.90
51273;DHT22;37345;59.828;30.328;2022-10-31T05:00:10;0.90;99.90
51273;DHT22;37345;59.828;30.328;2022-10-31T05:02:50;0.80;99.90
51273;DHT22;37345;59.828;30.328;2022-10-31T05:05:18;0.90;99.90
51273;DHT22;37345;59.828;30.328;2022-10-31T05:07:46;1.00;99.90
51273;DHT22;37345;59.828;30.328;2022-10-31T05:10:15;0.90;99.90
51273;DHT22;37345;59.828;30.328;2022-10-31T05:12:52;1.30;99.90
51273;DHT22;37345;59.828;30.328;2022-10-31T05:15:20;0.90;99.90
51273;DHT22;37345;59.828;30.328;2022-10-31T05:17:46;0.90;99.90
51273;DHT22;37345;59.828;30.328;2022-10-31T05:20:15;0.90;99.90
51273;DHT22;37345;59.828;30.328;2022-10-31T05:22:54;0.90;99.90
51273;DHT22;37345;59.828;30.328;2022-10-31T05:25:22;0.90;99.90
51273;DHT22;37345;59.828;30.328;2022-10-31T05:27:49;1.00;99.90
51273;DHT22;37345;59.828;30.328;2022-10-31T05:30:21;1.00;99.90
51273;DHT22;37345;59.828;30.328;2022-10-31T05:32:49;0.90;99.90
51273;DHT22;37345;59.828;30.328;2022-10-31T05:35:20;1.00;99.90
51273;DHT22;37345;59.828;30.328;2022-10-31T05:37:46;0.90;99.90
51273;DHT22;37345;59.828;30.328;2022-10-31T05:40:14;1.00;99.90
51273;DHT22;37345;59.828;30.328;2022-10-31T05:42:41;1.00;99.90
51273;DHT22;37345;59.828;30.328;2022-10-31T05:45:09;1.10;99.90
51273;DHT22;37345;59.828;30.328;2022-10-31T05:47:35;1.00;99.90
51273;DHT22;37345;59.828;30.328;2022-10-31T05:50:01;1.10;99.90
51273;DHT22;37345;59.828;30.328;2022-10-31T05:52:27;1.20;99.90
51273;DHT22;37345;59.828;30.328;2022-10-31T05:54:52;1.10;99.90
51273;DHT22;37345;59.828;30.328;2022-10-31T05:57:18;1.10;99.90
51273;DHT22;37345;59.828;30.328;2022-10-31T05:59:44;1.20;99.90
51273;DHT22;37345;59.828;30.328;2022-10-31T06:02:10;1.20;99.90
51273;DHT22;37345;59.828;30.328;2022-10-31T06:04:36;1.30;99.90
51273;DHT22;37345;59.828;30.328;2022-10-31T06:07:01;1.90;99.90
51273;DHT22;37345;59.828;30.328;2022-10-31T06:09:27;2.60;99.90
51273;DHT22;37345;59.828;30.328;2022-10-31T06:11:53;3.30;99.90
51273;DHT22;37345;59.828;30.328;2022-10-31T06:14:19;3.90;99.90
51273;DHT22;37345;59.828;30.328;2022-10-31T06:16:44;4.60;99.90
51273;DHT22;37345;59.828;30.328;2022-10-31T06:19:10;4.70;99.90
51273;DHT22;37345;59.828;30.328;2022-10-31T06:21:36;4.70;99.90
51273;DHT22;37345;59.828;30.328;2022-10-31T06:24:02;5.00;99.90
51273;DHT22;37345;59.828;30.328;2022-10-31T06:26:28;4.70;99.90
51273;DHT22;37345;59.828;30.328;2022-10-31T06:28:53;4.90;99.90
51273;DHT22;37345;59.828;30.328;2022-10-31T06:31:19;5.20;99.90
51273;DHT22;37345;59.828;30.328;2022-10-31T06:33:45;5.40;99.90
51273;DHT22;37345;59.828;30.328;2022-10-31T06:36:11;5.50;99.90
51273;DHT22;37345;59.828;30.328;2022-10-31T06:38:36;5.70;99.90
51273;DHT22;37345;59.828;30.328;2022-10-31T06:41:05;5.80;99.90
51273;DHT22;37345;59.828;30.328;2022-10-31T06:43:32;6.00;99.90
51273;DHT22;37345;59.828;30.328;2022-10-31T06:46:02;6.40;99.90
51273;DHT22;37345;59.828;30.328;2022-10-31T06:48:28;6.20;99.90
51273;DHT22;37345;59.828;30.328;2022-10-31T06:50:57;5.90;99.90
51273;DHT22;37345;59.828;30.328;2022-10-31T06:53:24;5.80;99.90
51273;DHT22;37345;59.828;30.328;2022-10-31T06:55:50;5.80;99.90
51273;DHT22;37345;59.828;30.328;2022-10-31T06:58:15;6.00;99.90
51273;DHT22;37345;59.828;30.328;2022-10-31T07:00:41;6.10;99.90
51273;DHT22;37345;59.828;30.328;2022-10-31T07:03:10;6.10;99.90
51273;DHT22;37345;59.828;30.328;2022-10-31T07:05:37;6.10;99.90
51273;DHT22;37345;59.828;30.328;2022-10-31T07:08:08;6.10;99.90
51273;DHT22;37345;59.828;30.328;2022-10-31T07:10:35;6.10;99.90
51273;DHT22;37345;59.828;30.328;2022-10-31T07:13:03;6.10;99.90
51273;DHT22;37345;59.828;30.328;2022-10-31T07:15:33;5.70;99.90
51273;DHT22;37345;59.828;30.328;2022-10-31T07:18:04;5.90;99.90
51273;DHT22;37345;59.828;30.328;2022-10-31T07:20:30;6.40;99.90
51273;DHT22;37345;59.828;30.328;2022-10-31T07:22:57;6.40;99.90
51273;DHT22;37345;59.828;30.328;2022-10-31T07:25:23;5.90;99.90
51273;DHT22;37345;59.828;30.328;2022-10-31T07:27:49;6.00;99.90
51273;DHT22;37345;59.828;30.328;2022-10-31T07:30:15;6.20;99.90
51273;DHT22;37345;59.828;30.328;2022-10-31T07:32:48;5.60;99.90
51273;DHT22;37345;59.828;30.328;2022-10-31T07:35:16;5.70;99.90
51273;DHT22;37345;59.828;30.328;2022-10-31T07:37:42;5.30;99.90
51273;DHT22;37345;59.828;30.328;2022-10-31T07:40:09;5.30;99.90
51273;DHT22;37345;59.828;30.328;2022-10-31T07:42:36;5.40;99.90
51273;DHT22;37345;59.828;30.328;2022-10-31T07:45:04;5.30;99.90
51273;DHT22;37345;59.828;30.328;2022-10-31T07:47:37;5.20;99.90
51273;DHT22;37345;59.828;30.328;2022-10-31T07:50:03;4.90;99.90
51273;DHT22;37345;59.828;30.328;2022-10-31T07:52:29;5.00;99.90
51273;DHT22;37345;59.828;30.328;2022-10-31T07:54:54;5.20;99.90
51273;DHT22;37345;59.828;30.328;2022-10-31T07:57:20;4.80;99.90
51273;DHT22;37345;59.828;30.328;2022-10-31T07:59:46;4.70;99.90
51273;DHT22;37345;59.828;30.328;2022-10-31T08:02:11;4.80;99.90
51273;DHT22;37345;59.828;30.328;2022-10-31T08:04:40;5.30;99.90
51273;DHT22;37345;59.828;30.328;2022-10-31T08:07:08;5.00;99.90
51273;DHT22;37345;59.828;30.328;2022-10-31T08:09:37;4.70;99.90
51273;DHT22;37345;59.828;30.328;2022-10-31T08:12:03;4.80;99.90
51273;DHT22;37345;59.828;30.328;2022-10-31T08:14:29;4.50;99.90
51273;DHT22;37345;59.828;30.328;2022-10-31T08:16:55;4.50;99.90
51273;DHT22;37345;59.828;30.328;2022-10-31T08:19:21;4.40;99.90
51273;DHT22;37345;59.828;30.328;2022-10-31T08:21:52;4.80;99.90
51273;DHT22;37345;59.828;30.328;2022-10-31T08:24:23;4.80;99.90
51273;DHT22;37345;59.828;30.328;2022-10-31T08:26:49;5.00;99.90
51273;DHT22;37345;59.828;30.328;2022-10-31T08:29:15;4.40;99.90
51273;DHT22;37345;59.828;30.328;2022-10-31T08:31:42;4.30;99.90
51273;DHT22;37345;59.828;30.328;2022-10-31T08:34:11;5.20;99.90
51273;DHT22;37345;59.828;30.328;2022-10-31T08:36:36;5.00;99.90
51273;DHT22;37345;59.828;30.328;2022-10-31T08:39:02;5.00;99.90
51273;DHT22;37345;59.828;30.328;2022-10-31T08:41:32;4.70;99.90
51273;DHT22;37345;59.828;30.328;2022-10-31T08:44:00;5.10;99.90
51273;DHT22;37345;59.828;30.328;2022-10-31T08:46:34;4.80;99.90
51273;DHT22;37345;59.828;30.328;2022-10-31T08:49:01;4.60;99.90
51273;DHT22;37345;59.828;30.328;2022-10-31T08:51:27;4.30;99.90
51273;DHT22;37345;59.828;30.328;2022-10-31T08:53:53;4.20;99.90
51273;DHT22;37345;59.828;30.328;2022-10-31T08:56:19;4.00;99.90
51273;DHT22;37345;59.828;30.328;2022-10-31T08:58:44;3.90;99.90
51273;DHT22;37345;59.828;30.328;2022-10-31T09:01:10;4.00;99.90
51273;DHT22;37345;59.828;30.328;2022-10-31T09:03:36;4.20;99.90
51273;DHT22;37345;59.828;30.328;2022-10-31T09:06:02;4.40;99.90
51273;DHT22;37345;59.828;30.328;2022-10-31T09:08:31;4.60;99.90
51273;DHT22;37345;59.828;30.328;2022-10-31T09:11:01;4.70;99.90
51273;DHT22;37345;59.828;30.328;2022-10-31T09:13:28;4.60;99.90
51273;DHT22;37345;59.828;30.328;2022-10-31T09:15:56;4.70;99.90
51273;DHT22;37345;59.828;30.328;2022-10-31T09:18:24;4.60;99.90
51273;DHT22;37345;59.828;30.328;2022-10-31T09:20:52;4.50;99.90
51273;DHT22;37345;59.828;30.328;2022-10-31T09:23:20;4.40;99.90
51273;DHT22;37345;59.828;30.328;2022-10-31T09:25:48;4.50;99.90
51273;DHT22;37345;59.828;30.328;2022-10-31T09:28:16;4.50;99.90
51273;DHT22;37345;59.828;30.328;2022-10-31T09:30:45;4.70;99.90
51273;DHT22;37345;59.828;30.328;2022-10-31T09:33:12;4.70;99.90
51273;DHT22;37345;59.828;30.328;2022-10-31T09:35:39;4.60;99.90
51273;DHT22;37345;59.828;30.328;2022-10-31T09:38:15;4.40;99.90
51273;DHT22;37345;59.828;30.328;2022-10-31T09:40:52;4.20;99.90
51273;DHT22;37345;59.828;30.328;2022-10-31T09:52:33;4.20;99.90
51273;DHT22;37345;59.828;30.328;2022-10-31T09:57:54;4.20;99.90
51273;DHT22;37345;59.828;30.328;2022-10-31T10:00:21;4.00;99.90
51273;DHT22;37345;59.828;30.328;2022-10-31T10:03:10;4.00;99.90
51273;DHT22;37345;59.828;30.328;2022-10-31T10:05:46;4.10;99.90
51273;DHT22;37345;59.828;30.328;2022-10-31T10:08:25;4.10;99.90
51273;DHT22;37345;59.828;30.328;2022-10-31T10:19:41;3.80;99.90
51273;DHT22;37345;59.828;30.328;2022-10-31T10:28:12;3.70;99.90
51273;DHT22;37345;59.828;30.328;2022-10-31T10:30:47;3.80;99.90
51273;DHT22;37345;59.828;30.328;2022-10-31T10:33:28;3.80;99.90
51273;DHT22;37345;59.828;30.328;2022-10-31T10:35:59;3.70;99.90
51273;DHT22;37345;59.828;30.328;2022-10-31T10:38:53;3.80;99.90
51273;DHT22;37345;59.828;30.328;2022-10-31T10:41:23;3.90;99.90
51273;DHT22;37345;59.828;30.328;2022-10-31T10:43:52;4.00;99.90
51273;DHT22;37345;59.828;30.328;2022-10-31T10:46:39;3.90;99.90
51273;DHT22;37345;59.828;30.328;2022-10-31T10:49:32;3.90;99.90
51273;DHT22;37345;59.828;30.328;2022-10-31T11:00:45;4.10;99.90
51273;DHT22;37345;59.828;30.328;2022-10-31T11:03:18;4.20;99.90
51273;DHT22;37345;59.828;30.328;2022-10-31T11:05:54;4.00;99.90
51273;DHT22;37345;59.828;30.328;2022-10-31T11:08:34;4.00;99.90
51273;DHT22;37345;59.828;30.328;2022-10-31T11:13:27;3.80;99.90
51273;DHT22;37345;59.828;30.328;2022-10-31T11:18:31;3.90;99.90
51273;DHT22;37345;59.828;30.328;2022-10-31T11:21:00;3.90;99.90
51273;DHT22;37345;59.828;30.328;2022-10-31T11:23:28;3.90;99.90
51273;DHT22;37345;59.828;30.328;2022-10-31T11:26:02;3.90;99.90
51273;DHT22;37345;59.828;30.328;2022-10-31T11:28:29;4.00;99.90
51273;DHT22;37345;59.828;30.328;2022-10-31T11:31:05;4.00;99.90
51273;DHT22;37345;59.828;30.328;2022-10-31T11:33:57;4.00;99.90
51273;DHT22;37345;59.828;30.328;2022-10-31T11:36:22;4.00;99.90
51273;DHT22;37345;59.828;30.328;2022-10-31T11:38:52;4.00;99.90
51273;DHT22;37345;59.828;30.328;2022-10-31T11:43:55;4.00;99.90
51273;DHT22;37345;59.828;30.328;2022-10-31T11:46:32;4.00;99.90
51273;DHT22;37345;59.828;30.328;2022-10-31T11:48:59;4.00;99.90
51273;DHT22;37345;59.828;30.328;2022-10-31T11:51:30;3.90;99.90
51273;DHT22;37345;59.828;30.328;2022-10-31T11:54:01;3.90;99.90
51273;DHT22;37345;59.828;30.328;2022-10-31T11:56:38;3.90;99.90
51273;DHT22;37345;59.828;30.328;2022-10-31T11:59:14;4.00;99.90
51273;DHT22;37345;59.828;30.328;2022-10-31T12:01:49;4.00;99.90
51273;DHT22;37345;59.828;30.328;2022-10-31T12:04:16;4.00;99.90
51273;DHT22;37345;59.828;30.328;2022-10-31T12:06:46;3.90;99.90
51273;DHT22;37345;59.828;30.328;2022-10-31T12:09:30;4.00;99.90
51273;DHT22;37345;59.828;30.328;2022-10-31T12:18:04;4.00;99.90
51273;DHT22;37345;59.828;30.328;2022-10-31T12:21:12;4.00;99.90
51273;DHT22;37345;59.828;30.328;2022-10-31T12:29:13;4.00;99.90
51273;DHT22;37345;59.828;30.328;2022-10-31T12:37:03;4.00;99.90
51273;DHT22;37345;59.828;30.328;2022-10-31T12:45:17;3.90;99.90
51273;DHT22;37345;59.828;30.328;2022-10-31T12:56:47;3.80;99.90
51273;DHT22;37345;59.828;30.328;2022-10-31T12:59:30;3.90;99.90
51273;DHT22;37345;59.828;30.328;2022-10-31T13:02:23;3.90;99.90
51273;DHT22;37345;59.828;30.328;2022-10-31T13:07:49;3.90;99.90
51273;DHT22;37345;59.828;30.328;2022-10-31T13:10:41;3.90;99.90
51273;DHT22;37345;59.828;30.328;2022-10-31T13:13:27;3.90;99.90
51273;DHT22;37345;59.828;30.328;2022-10-31T13:16:08;3.90;99.90
51273;DHT22;37345;59.828;30.328;2022-10-31T13:18:46;3.90;99.90
51273;DHT22;37345;59.828;30.328;2022-10-31T13:21:21;3.90;99.90
51273;DHT22;37345;59.828;30.328;2022-10-31T13:23:50;3.90;99.90
51273;DHT22;37345;59.828;30.328;2022-10-31T13:26:37;4.00;99.90
51273;DHT22;37345;59.828;30.328;2022-10-31T13:31:54;4.00;99.90
51273;DHT22;37345;59.828;30.328;2022-10-31T13:34:51;4.10;99.90
51273;DHT22;37345;59.828;30.328;2022-10-31T13:45:23;4.10;99.90
51273;DHT22;37345;59.828;30.328;2022-10-31T13:50:30;4.30;99.90
51273;DHT22;37345;59.828;30.328;2022-10-31T13:55:45;3.90;99.90
51273;DHT22;37345;59.828;30.328;2022-10-31T13:58:29;3.90;99.90
51273;DHT22;37345;59.828;30.328;2022-10-31T14:03:30;3.90;99.90
51273;DHT22;37345;59.828;30.328;2022-10-31T14:05:57;3.90;99.90
51273;DHT22;37345;59.828;30.328;2022-10-31T14:08:23;3.90;99.90
51273;DHT22;37345;59.828;30.328;2022-10-31T14:10:52;3.80;99.90
51273;DHT22;37345;59.828;30.328;2022-10-31T14:13:22;3.80;99.90
51273;DHT22;37345;59.828;30.328;2022-10-31T14:16:00;3.90;99.90
51273;DHT22;37345;59.828;30.328;2022-10-31T14:18:31;3.90;99.90
51273;DHT22;37345;59.828;30.328;2022-10-31T14:21:00;3.90;99.90
51273;DHT22;37345;59.828;30.328;2022-10-31T14:23:39;3.90;99.90
51273;DHT22;37345;59.828;30.328;2022-10-31T14:28:54;3.70;99.90
51273;DHT22;37345;59.828;30.328;2022-10-31T14:33:59;3.90;99.90
51273;DHT22;37345;59.828;30.328;2022-10-31T14:36:44;3.80;99.90
51273;DHT22;37345;59.828;30.328;2022-10-31T14:39:21;3.80;99.90
51273;DHT22;37345;59.828;30.328;2022-10-31T14:47:22;3.80;99.90
51273;DHT22;37345;59.828;30.328;2022-10-31T14:52:34;3.80;99.90
51273;DHT22;37345;59.828;30.328;2022-10-31T14:55:00;3.80;99.90
51273;DHT22;37345;59.828;30.328;2022-10-31T14:57:32;3.80;99.90
51273;DHT22;37345;59.828;30.328;2022-10-31T15:00:08;3.80;99.90
51273;DHT22;37345;59.828;30.328;2022-10-31T15:03:03;3.70;99.90
51273;DHT22;37345;59.828;30.328;2022-10-31T15:05:32;3.70;99.90
51273;DHT22;37345;59.828;30.328;2022-10-31T15:07:58;3.70;99.90
51273;DHT22;37345;59.828;30.328;2022-10-31T15:10:32;3.70;99.90
51273;DHT22;37345;59.828;30.328;2022-10-31T15:13:17;3.70;99.90
51273;DHT22;37345;59.828;30.328;2022-10-31T15:15:43;3.60;99.90
51273;DHT22;37345;59.828;30.328;2022-10-31T15:18:17;3.60;99.90
51273;DHT22;37345;59.828;30.328;2022-10-31T15:20:44;3.60;99.90
51273;DHT22;37345;59.828;30.328;2022-10-31T15:23:14;3.70;99.90
51273;DHT22;37345;59.828;30.328;2022-10-31T15:25:41;3.60;99.90
51273;DHT22;37345;59.828;30.328;2022-10-31T15:28:23;3.70;99.90
51273;DHT22;37345;59.828;30.328;2022-10-31T15:31:00;3.70;99.90
51273;DHT22;37345;59.828;30.328;2022-10-31T15:33:28;3.60;99.90
51273;DHT22;37345;59.828;30.328;2022-10-31T15:36:05;3.60;99.90
51273;DHT22;37345;59.828;30.328;2022-10-31T15:38:31;3.80;99.90
51273;DHT22;37345;59.828;30.328;2022-10-31T15:41:36;3.70;99.90
51273;DHT22;37345;59.828;30.328;2022-10-31T15:44:36;3.80;99.90
51273;DHT22;37345;59.828;30.328;2022-10-31T15:47:12;3.80;99.90
51273;DHT22;37345;59.828;30.328;2022-10-31T15:54:52;3.80;99.90
51273;DHT22;37345;59.828;30.328;2022-10-31T15:57:21;3.80;99.90
51273;DHT22;37345;59.828;30.328;2022-10-31T15:59:48;4.00;99.90
51273;DHT22;37345;59.828;30.328;2022-10-31T16:02:21;4.00;99.90
51273;DHT22;37345;59.828;30.328;2022-10-31T16:05:00;4.00;99.90
51273;DHT22;37345;59.828;30.328;2022-10-31T16:07:27;4.00;99.90
51273;DHT22;37345;59.828;30.328;2022-10-31T16:10:02;4.10;99.90
51273;DHT22;37345;59.828;30.328;2022-10-31T16:12:35;4.10;99.90
51273;DHT22;37345;59.828;30.328;2022-10-31T16:15:05;4.10;99.90
51273;DHT22;37345;59.828;30.328;2022-10-31T16:17:32;4.10;99.90
51273;DHT22;37345;59.828;30.328;2022-10-31T16:20:16;4.20;99.90
51273;DHT22;37345;59.828;30.328;2022-10-31T16:23:15;4.10;99.90
51273;DHT22;37345;59.828;30.328;2022-10-31T16:25:42;4.10;99.90
51273;DHT22;37345;59.828;30.328;2022-10-31T16:28:28;4.10;99.90
51273;DHT22;37345;59.828;30.328;2022-10-31T16:30:56;4.10;99.90
51273;DHT22;37345;59.828;30.328;2022-10-31T16:33:36;4.10;99.90
51273;DHT22;37345;59.828;30.328;2022-10-31T16:38:59;4.10;99.90
51273;DHT22;37345;59.828;30.328;2022-10-31T16:41:25;4.00;99.90
51273;DHT22;37345;59.828;30.328;2022-10-31T16:43:52;4.10;99.90
51273;DHT22;37345;59.828;30.328;2022-10-31T16:46:26;4.10;99.90
51273;DHT22;37345;59.828;30.328;2022-10-31T16:48:53;4.10;99.90
51273;DHT22;37345;59.828;30.328;2022-10-31T16:51:19;4.10;99.90
51273;DHT22;37345;59.828;30.328;2022-10-31T16:53:45;4.20;99.90
51273;DHT22;37345;59.828;30.328;2022-10-31T16:56:30;4.20;99.90
51273;DHT22;37345;59.828;30.328;2022-10-31T16:58:59;4.30;99.90
51273;DHT22;37345;59.828;30.328;2022-10-31T17:01:26;4.20;99.90
51273;DHT22;37345;59.828;30.328;2022-10-31T17:03:52;4.20;99.90
51273;DHT22;37345;59.828;30.328;2022-10-31T17:06:17;4.30;99.90
51273;DHT22;37345;59.828;30.328;2022-10-31T17:08:43;4.20;99.90
51273;DHT22;37345;59.828;30.328;2022-10-31T17:11:16;4.20;99.90
51273;DHT22;37345;59.828;30.328;2022-10-31T17:13:43;4.40;99.90
51273;DHT22;37345;59.828;30.328;2022-10-31T17:16:09;4.30;99.90
51273;DHT22;37345;59.828;30.328;2022-10-31T17:18:37;4.20;99.90
51273;DHT22;37345;59.828;30.328;2022-10-31T17:21:04;4.30;99.90
51273;DHT22;37345;59.828;30.328;2022-10-31T17:23:31;4.40;99.90
51273;DHT22;37345;59.828;30.328;2022-10-31T17:26:00;4.30;99.90
51273;DHT22;37345;59.828;30.328;2022-10-31T17:28:26;4.30;99.90
51273;DHT22;37345;59.828;30.328;2022-10-31T17:30:54;4.30;99.90
51273;DHT22;37345;59.828;30.328;2022-10-31T17:33:20;4.20;99.90
51273;DHT22;37345;59.828;30.328;2022-10-31T17:35:46;4.20;99.90
51273;DHT22;37345;59.828;30.328;2022-10-31T17:38:15;4.20;99.90
51273;DHT22;37345;59.828;30.328;2022-10-31T17:40:41;4.20;99.90
51273;DHT22;37345;59.828;30.328;2022-10-31T17:43:08;4.20;99.90
51273;DHT22;37345;59.828;30.328;2022-10-31T17:45:34;4.30;99.90
51273;DHT22;37345;59.828;30.328;2022-10-31T17:48:00;4.40;99.90
51273;DHT22;37345;59.828;30.328;2022-10-31T17:50:26;4.50;99.90
51273;DHT22;37345;59.828;30.328;2022-10-31T17:52:52;4.30;99.90
51273;DHT22;37345;59.828;30.328;2022-10-31T17:55:18;4.30;99.90
51273;DHT22;37345;59.828;30.328;2022-10-31T17:57:45;4.30;99.90
51273;DHT22;37345;59.828;30.328;2022-10-31T18:00:16;4.30;99.90
51273;DHT22;37345;59.828;30.328;2022-10-31T18:02:43;4.20;99.90
51273;DHT22;37345;59.828;30.328;2022-10-31T18:05:09;4.00;99.90
51273;DHT22;37345;59.828;30.328;2022-10-31T18:07:36;3.80;99.90
51273;DHT22;37345;59.828;30.328;2022-10-31T18:10:02;3.80;99.90
51273;DHT22;37345;59.828;30.328;2022-10-31T18:12:28;3.70;99.90
51273;DHT22;37345;59.828;30.328;2022-10-31T18:14:57;3.60;99.90
51273;DHT22;37345;59.828;30.328;2022-10-31T18:17:23;3.60;99.90
51273;DHT22;37345;59.828;30.328;2022-10-31T18:19:48;3.50;99.90
51273;DHT22;37345;59.828;30.328;2022-10-31T18:22:14;3.40;99.90
51273;DHT22;37345;59.828;30.328;2022-10-31T18:24:40;3.40;99.90
51273;DHT22;37345;59.828;30.328;2022-10-31T18:27:06;3.40;99.90
51273;DHT22;37345;59.828;30.328;2022-10-31T18:29:32;3.40;99.90